createdAt,value
2023-04-18T00:01:45.608Z,10.20
2023-04-18T00:04:13.953Z,10.00
2023-04-18T00:06:41.188Z,10.30
2023-04-18T00:09:08.096Z,9.55
2023-04-18T00:11:35.098Z,9.07
2023-04-18T00:14:03.222Z,10.73
2023-04-18T00:16:30.456Z,9.75
2023-04-18T00:18:57.353Z,9.77
2023-04-18T00:21:25.514Z,8.35
2023-04-18T00:23:52.413Z,10.48
2023-04-18T00:26:19.279Z,9.40
2023-04-18T00:28:46.012Z,9.43
2023-04-18T00:31:12.764Z,8.18
2023-04-18T00:33:39.600Z,8.88
2023-04-18T00:36:06.641Z,8.63
2023-04-18T00:38:33.406Z,9.20
2023-04-18T00:41:00.158Z,9.13
2023-04-18T00:43:26.984Z,8.82
2023-04-18T00:45:54.012Z,7.85
2023-04-18T00:48:21.016Z,8.07
2023-04-18T00:50:47.769Z,8.23
2023-04-18T00:53:15.408Z,7.75
2023-04-18T00:55:42.206Z,8.25
2023-04-18T00:58:09.458Z,7.80
2023-04-18T01:00:36.778Z,8.27
2023-04-18T01:03:03.715Z,7.68
2023-04-18T01:05:30.746Z,8.38
2023-04-18T01:08:00.849Z,6.75
2023-04-18T01:10:28.663Z,7.78
2023-04-18T01:13:19.062Z,7.80
2023-04-18T01:15:50.596Z,7.00
2023-04-18T01:18:17.911Z,5.57
2023-04-18T01:20:50.569Z,7.30
2023-04-18T01:23:18.977Z,8.35
2023-04-18T01:25:47.469Z,7.90
2023-04-18T01:28:15.219Z,7.60
2023-04-18T01:30:41.966Z,7.95
2023-04-18T01:33:08.716Z,7.68
2023-04-18T01:35:35.641Z,8.95
2023-04-18T01:38:02.522Z,7.65
2023-04-18T01:40:30.002Z,6.65
2023-04-18T01:42:56.718Z,7.45
2023-04-18T01:45:23.535Z,7.32
2023-04-18T01:47:50.334Z,7.10
2023-04-18T01:50:17.204Z,6.97
2023-04-18T01:52:43.964Z,7.07
2023-04-18T01:55:10.915Z,7.20
2023-04-18T01:57:38.396Z,7.57
2023-04-18T02:00:07.555Z,6.60
2023-04-18T02:02:34.427Z,7.95
2023-04-18T02:05:01.519Z,7.97
2023-04-18T02:07:28.276Z,7.68
2023-04-18T02:09:55.089Z,7.28
2023-04-18T02:12:21.848Z,7.35
2023-04-18T02:14:54.964Z,7.15
2023-04-18T02:17:23.283Z,7.18
2023-04-18T02:19:51.652Z,5.80
2023-04-18T02:22:19.071Z,6.13
2023-04-18T02:24:46.173Z,8.20
2023-04-18T02:27:13.248Z,7.57
2023-04-18T02:29:40.009Z,8.00
2023-04-18T02:32:07.018Z,8.55
2023-04-18T02:34:33.994Z,7.20
2023-04-18T02:37:00.828Z,7.75
2023-04-18T02:39:27.693Z,8.07
2023-04-18T02:41:54.465Z,8.02
2023-04-18T02:44:21.280Z,7.38
2023-04-18T02:46:48.009Z,7.35
2023-04-18T02:49:14.843Z,8.18
2023-04-18T02:51:41.675Z,7.72
2023-04-18T02:54:08.550Z,7.35
2023-04-18T02:56:39.790Z,8.05
2023-04-18T02:59:07.319Z,8.07
2023-04-18T03:01:34.282Z,7.63
2023-04-18T03:04:01.100Z,7.63
2023-04-18T03:06:27.795Z,7.57
2023-04-18T03:08:55.693Z,6.63
2023-04-18T03:11:22.468Z,6.97
2023-04-18T03:13:49.386Z,6.25
2023-04-18T03:16:16.745Z,7.55
2023-04-18T03:18:43.593Z,8.02
2023-04-18T03:21:11.291Z,6.85
2023-04-18T03:23:38.361Z,8.13
2023-04-18T03:26:07.775Z,7.80
2023-04-18T03:28:35.010Z,7.72
2023-04-18T03:31:01.831Z,7.22
2023-04-18T03:33:28.801Z,7.97
2023-04-18T03:35:55.531Z,7.70
2023-04-18T03:38:22.498Z,8.27
2023-04-18T03:40:49.365Z,7.90
2023-04-18T03:43:16.160Z,7.25
2023-04-18T03:45:44.127Z,7.85
2023-04-18T03:48:10.937Z,6.90
2023-04-18T03:50:37.710Z,7.60
2023-04-18T03:53:04.452Z,7.35
2023-04-18T03:55:31.476Z,6.72
2023-04-18T03:57:59.120Z,6.78
2023-04-18T04:22:53.272Z,6.85
2023-04-18T04:25:20.097Z,6.20
2023-04-18T04:27:46.830Z,6.40
2023-04-18T04:30:13.770Z,7.38
2023-04-18T04:32:40.714Z,5.82
2023-04-18T04:35:08.499Z,6.25
2023-04-18T04:37:35.384Z,7.07
2023-04-18T04:40:02.620Z,6.40
2023-04-18T04:42:29.393Z,6.80
2023-04-18T04:44:56.472Z,7.05
2023-04-18T04:47:23.230Z,6.13
2023-04-18T04:49:49.993Z,6.60
2023-04-18T04:52:16.728Z,6.80
2023-04-18T04:54:45.674Z,6.55
2023-04-18T04:57:12.833Z,7.15
2023-04-18T04:59:39.601Z,7.47
2023-04-18T05:02:06.407Z,7.43
2023-04-18T05:04:33.297Z,7.70
2023-04-18T05:07:00.129Z,7.53
2023-04-18T05:09:26.867Z,7.15
2023-04-18T05:11:53.595Z,7.40
2023-04-18T05:14:20.792Z,6.95
2023-04-18T05:16:47.698Z,7.90
2023-04-18T05:19:14.551Z,8.52
2023-04-18T05:21:41.587Z,7.43
2023-04-18T05:24:08.477Z,8.13
2023-04-18T05:26:35.339Z,7.38
2023-04-18T05:29:02.142Z,7.38
2023-04-18T05:31:29.319Z,7.45
2023-04-18T05:33:56.180Z,8.85
2023-04-18T05:36:22.964Z,7.50
2023-04-18T05:38:49.950Z,7.45
2023-04-18T05:41:16.686Z,8.02
2023-04-18T05:43:46.370Z,8.30
2023-04-18T05:46:21.377Z,7.85
2023-04-18T05:48:48.145Z,7.72
2023-04-18T05:51:15.072Z,7.57
2023-04-18T05:53:41.825Z,8.00
2023-04-18T05:56:08.620Z,7.75
2023-04-18T05:58:35.358Z,7.72
2023-04-18T06:01:02.890Z,7.68
2023-04-18T06:03:29.782Z,7.15
2023-04-18T06:05:56.832Z,7.90
2023-04-18T06:08:23.776Z,7.82
2023-04-18T06:10:50.487Z,7.82
2023-04-18T06:13:17.214Z,8.20
2023-04-18T06:15:43.990Z,7.60
2023-04-18T06:18:10.743Z,8.50
2023-04-18T06:20:37.491Z,7.95
2023-04-18T06:23:04.277Z,7.68
2023-04-18T06:25:31.075Z,7.20
2023-04-18T06:27:57.784Z,7.82
2023-04-18T06:30:24.612Z,8.05
2023-04-18T06:32:51.391Z,8.05
2023-04-18T06:35:18.276Z,7.90
2023-04-18T06:37:45.365Z,8.02
2023-04-18T06:40:12.539Z,7.65
2023-04-18T06:42:39.479Z,7.97
2023-04-18T06:45:07.213Z,7.65
2023-04-18T06:47:34.109Z,8.50
2023-04-18T06:50:01.093Z,8.07
2023-04-18T06:52:27.867Z,8.32
2023-04-18T06:54:54.608Z,8.15
2023-04-18T06:57:21.419Z,8.07
2023-04-18T06:59:48.142Z,8.82
2023-04-18T07:02:15.364Z,8.38
2023-04-18T07:04:42.202Z,9.70
2023-04-18T07:07:09.116Z,9.25
2023-04-18T07:09:35.878Z,8.00
2023-04-18T07:12:03.020Z,9.32
2023-04-18T07:14:30.796Z,8.57
2023-04-18T07:16:58.566Z,9.38
2023-04-18T07:19:25.343Z,8.32
2023-04-18T07:21:52.165Z,9.55
2023-04-18T07:24:18.978Z,8.88
2023-04-18T07:26:45.796Z,9.07
2023-04-18T07:29:12.574Z,8.65
2023-04-18T07:31:39.312Z,8.80
2023-04-18T07:34:06.162Z,9.65
2023-04-18T07:36:33.002Z,9.40
2023-04-18T07:38:59.750Z,8.85
2023-04-18T07:41:26.507Z,9.55
2023-04-18T07:43:53.250Z,8.35
2023-04-18T07:46:20.208Z,9.57
2023-04-18T07:48:46.961Z,7.93
2023-04-18T07:51:13.887Z,9.13
2023-04-18T07:53:41.137Z,9.10
2023-04-18T07:56:07.982Z,9.07
2023-04-18T07:58:35.273Z,8.52
2023-04-18T08:01:02.743Z,7.68
2023-04-18T08:03:29.714Z,8.38
2023-04-18T08:05:56.763Z,7.22
2023-04-18T08:08:23.595Z,7.55
2023-04-18T08:10:50.809Z,7.57
2023-04-18T08:13:17.940Z,7.53
2023-04-18T08:15:44.765Z,6.95
2023-04-18T08:18:11.575Z,7.18
2023-04-18T08:20:38.578Z,6.78
2023-04-18T08:23:07.983Z,6.45
2023-04-18T08:25:37.210Z,6.20
2023-04-18T08:28:04.377Z,6.13
2023-04-18T08:30:31.864Z,5.68
2023-04-18T08:33:00.602Z,5.05
2023-04-18T08:35:27.479Z,4.80
2023-04-18T08:37:54.572Z,4.03
2023-04-18T08:40:21.872Z,3.95
2023-04-18T08:42:52.393Z,3.60
2023-04-18T08:45:20.743Z,4.10
2023-04-18T08:47:47.688Z,3.95
2023-04-18T08:50:17.130Z,3.53
2023-04-18T08:52:50.225Z,4.05
2023-04-18T08:55:18.913Z,3.80
2023-04-18T08:57:45.682Z,4.53
2023-04-18T09:00:13.627Z,4.25
2023-04-18T09:02:45.038Z,4.63
2023-04-18T09:05:21.142Z,5.00
2023-04-18T09:07:53.007Z,4.75
2023-04-18T09:10:33.545Z,5.93
2023-04-18T09:13:03.550Z,5.88
2023-04-18T09:15:31.376Z,5.38
2023-04-18T09:18:05.586Z,5.00
2023-04-18T09:20:43.608Z,5.95
2023-04-18T09:23:16.124Z,6.07
2023-04-18T09:25:47.997Z,5.43
2023-04-18T09:28:33.170Z,6.03
2023-04-18T09:31:11.696Z,5.60
2023-04-18T09:33:44.702Z,6.13
2023-04-18T09:36:24.824Z,5.63
2023-04-18T09:38:56.193Z,5.65
2023-04-18T09:41:23.765Z,5.88
2023-04-18T09:44:08.991Z,6.30
2023-04-18T09:46:37.176Z,6.35
2023-04-18T09:49:03.965Z,6.25
2023-04-18T09:51:31.776Z,6.07
2023-04-18T09:53:58.579Z,6.50
2023-04-18T09:56:28.431Z,6.22
2023-04-18T09:59:11.210Z,6.50
2023-04-18T10:01:41.230Z,6.28
2023-04-18T10:04:09.664Z,6.30
2023-04-18T10:06:39.620Z,7.03
2023-04-18T10:09:09.396Z,6.22
2023-04-18T10:11:36.890Z,6.32
2023-04-18T10:14:09.994Z,6.25
2023-04-18T10:16:38.135Z,6.03
2023-04-18T10:19:25.891Z,6.70
2023-04-18T10:21:54.043Z,7.40
2023-04-18T10:24:52.962Z,6.97
2023-04-18T10:27:47.465Z,7.55
2023-04-18T10:30:18.377Z,8.32
2023-04-18T10:32:48.254Z,7.53
2023-04-18T10:35:15.004Z,7.80
2023-04-18T10:37:59.213Z,8.30
2023-04-18T10:40:36.455Z,7.57
2023-04-18T10:43:03.188Z,6.82
2023-04-18T10:45:36.134Z,7.22
2023-04-18T10:48:27.530Z,7.22
2023-04-18T10:51:13.941Z,7.53
2023-04-18T10:53:57.684Z,7.72
2023-04-18T10:56:26.073Z,7.68
2023-04-18T10:58:53.578Z,7.25
2023-04-18T11:01:32.498Z,8.30
2023-04-18T11:04:00.793Z,7.82
2023-04-18T11:06:28.453Z,8.25
2023-04-18T11:09:12.504Z,7.38
2023-04-18T11:11:39.951Z,7.82
2023-04-18T11:14:06.892Z,7.85
2023-04-18T11:16:34.412Z,7.53
2023-04-18T11:19:01.734Z,8.15
2023-04-18T11:21:30.618Z,7.78
2023-04-18T11:23:58.387Z,7.32
2023-04-18T11:26:28.975Z,7.47
2023-04-18T11:28:58.956Z,6.93
2023-04-18T11:31:25.834Z,7.03
2023-04-18T11:33:52.713Z,7.18
2023-04-18T11:36:19.512Z,8.35
2023-04-18T11:38:46.488Z,8.00
2023-04-18T11:41:16.523Z,7.85
2023-04-18T11:43:46.271Z,7.75
2023-04-18T11:46:13.856Z,7.32
2023-04-18T11:48:45.115Z,7.90
2023-04-18T11:51:36.117Z,8.63
2023-04-18T11:54:03.089Z,7.40
2023-04-18T11:56:31.570Z,7.88
2023-04-18T11:58:58.373Z,8.52
2023-04-18T12:01:27.072Z,8.80
2023-04-18T12:04:08.451Z,7.30
2023-04-18T12:06:53.526Z,7.70
2023-04-18T12:09:24.563Z,7.85
2023-04-18T12:12:03.611Z,8.85
2023-04-18T12:14:30.767Z,9.00
2023-04-18T12:16:57.551Z,8.68
2023-04-18T12:19:28.109Z,9.02
2023-04-18T12:22:09.852Z,8.95
2023-04-18T12:24:37.830Z,8.85
2023-04-18T12:27:05.034Z,7.88
2023-04-18T12:29:31.766Z,7.75
2023-04-18T12:31:58.625Z,9.05
2023-04-18T12:34:25.596Z,9.00
2023-04-18T12:36:52.395Z,8.00
2023-04-18T12:39:19.213Z,7.93
2023-04-18T12:41:49.054Z,8.30
2023-04-18T12:44:16.713Z,7.90
2023-04-18T12:46:43.500Z,8.45
2023-04-18T12:49:10.410Z,8.32
2023-04-18T12:51:37.162Z,8.00
2023-04-18T12:54:04.089Z,8.10
2023-04-18T12:56:30.827Z,7.57
2023-04-18T12:58:57.556Z,7.57
2023-04-18T13:01:24.302Z,7.53
2023-04-18T13:04:03.813Z,7.03
2023-04-18T13:06:35.568Z,7.80
2023-04-18T13:09:02.286Z,8.95
2023-04-18T13:11:29.822Z,9.02
2023-04-18T13:13:56.600Z,7.70
2023-04-18T13:16:23.542Z,8.45
2023-04-18T13:18:50.471Z,7.93
2023-04-18T13:21:17.614Z,7.80
2023-04-18T13:23:44.385Z,8.55
2023-04-18T13:26:11.135Z,8.05
2023-04-18T13:28:37.874Z,8.48
2023-04-18T13:31:05.270Z,8.85
2023-04-18T13:33:31.997Z,8.15
2023-04-18T13:35:58.721Z,9.57
2023-04-18T13:38:27.367Z,10.70
2023-04-18T13:41:08.578Z,10.30
2023-04-18T13:43:38.758Z,10.60
2023-04-18T13:46:05.633Z,10.82
2023-04-18T13:48:32.364Z,10.23
2023-04-18T13:50:59.094Z,11.13
2023-04-18T13:53:25.880Z,10.27
2023-04-18T13:55:52.609Z,10.10
2023-04-18T13:58:19.352Z,9.32
2023-04-18T14:00:46.180Z,9.55
2023-04-18T14:03:13.080Z,9.10
2023-04-18T14:05:39.954Z,10.63
2023-04-18T14:08:06.824Z,9.50
2023-04-18T14:10:33.708Z,10.90
2023-04-18T14:13:00.763Z,10.68
2023-04-18T14:15:27.655Z,10.10
2023-04-18T14:17:54.453Z,10.23
2023-04-18T14:20:21.215Z,9.85
2023-04-18T14:22:52.388Z,9.20
2023-04-18T14:25:19.923Z,10.07
2023-04-18T14:27:48.035Z,10.13
2023-04-18T14:30:15.216Z,10.63
2023-04-18T14:32:42.085Z,11.88
2023-04-18T14:35:10.599Z,10.90
2023-04-18T14:37:37.595Z,11.15
2023-04-18T14:40:05.415Z,10.73
2023-04-18T14:42:32.220Z,10.15
2023-04-18T14:45:00.503Z,10.63
2023-04-18T14:47:31.727Z,10.82
2023-04-18T14:49:58.639Z,11.80
2023-04-18T14:52:25.567Z,11.25
2023-04-18T14:54:52.317Z,12.02
2023-04-18T14:57:19.120Z,10.55
2023-04-18T14:59:45.974Z,11.98
2023-04-18T15:02:12.958Z,12.50
2023-04-18T15:04:40.026Z,12.45
2023-04-18T15:07:07.075Z,12.63
2023-04-18T15:09:40.105Z,11.30
2023-04-18T15:12:07.246Z,11.73
2023-04-18T15:14:35.581Z,11.68
2023-04-18T15:17:03.274Z,10.88
2023-04-18T15:19:31.523Z,11.40
2023-04-18T15:21:58.538Z,10.95
2023-04-18T15:24:25.818Z,10.45
2023-04-18T15:26:52.681Z,9.38
2023-04-18T15:29:19.509Z,10.02
2023-04-18T15:31:47.009Z,10.20
2023-04-18T15:34:14.131Z,10.30
2023-04-18T15:36:41.418Z,10.13
2023-04-18T15:39:09.108Z,10.30
2023-04-18T15:41:36.891Z,8.52
2023-04-18T15:44:06.614Z,10.27
2023-04-18T15:46:34.801Z,9.45
2023-04-18T15:49:01.641Z,10.30
2023-04-18T15:51:30.197Z,10.50
2023-04-18T15:53:56.960Z,9.75
2023-04-18T15:56:26.774Z,10.63
2023-04-18T15:58:56.812Z,10.63
2023-04-18T16:01:23.880Z,10.57
2023-04-18T16:03:50.762Z,10.10
2023-04-18T16:06:22.210Z,8.85
2023-04-18T16:08:49.971Z,8.43
2023-04-18T16:11:17.998Z,9.15
2023-04-18T16:13:44.778Z,8.80
2023-04-18T16:16:11.849Z,8.52
2023-04-18T16:18:39.391Z,9.88
2023-04-18T16:21:06.190Z,8.77
2023-04-18T16:23:33.021Z,8.73
2023-04-18T16:25:59.889Z,9.43
2023-04-18T16:28:26.773Z,8.80
2023-04-18T16:30:55.604Z,10.15
2023-04-18T16:33:25.870Z,9.93
2023-04-18T16:35:53.127Z,8.77
2023-04-18T16:38:23.267Z,8.98
2023-04-18T16:40:50.037Z,8.60
2023-04-18T16:43:16.894Z,8.85
2023-04-18T16:45:43.663Z,8.40
2023-04-18T16:48:10.448Z,9.13
2023-04-18T16:50:37.348Z,8.93
2023-04-18T16:53:04.095Z,9.63
2023-04-18T16:55:30.965Z,11.43
2023-04-18T16:57:57.695Z,9.43
2023-04-18T17:00:24.971Z,9.57
2023-04-18T17:02:52.149Z,9.27
2023-04-18T17:05:19.350Z,9.68
2023-04-18T17:07:47.695Z,9.90
2023-04-18T17:10:14.441Z,9.98
2023-04-18T17:12:41.344Z,9.95
2023-04-18T17:15:08.415Z,9.75
2023-04-18T17:17:35.489Z,9.35
2023-04-18T17:20:02.271Z,9.60
2023-04-18T17:22:29.409Z,9.27
2023-04-18T17:24:56.175Z,11.00
2023-04-18T17:27:23.027Z,9.02
2023-04-18T17:29:49.870Z,10.10
2023-04-18T17:32:16.660Z,9.18
2023-04-18T17:34:43.462Z,8.57
2023-04-18T17:37:11.458Z,9.73
2023-04-18T17:39:38.978Z,9.45
2023-04-18T17:42:05.862Z,9.93
2023-04-18T17:44:32.635Z,10.32
2023-04-18T17:47:00.861Z,10.00
2023-04-18T17:49:34.264Z,10.18
2023-04-18T17:52:02.042Z,10.00
2023-04-18T17:54:28.858Z,9.70
2023-04-18T17:56:55.787Z,10.07
2023-04-18T17:59:22.537Z,10.27
2023-04-18T18:01:49.372Z,9.68
2023-04-18T18:04:16.717Z,10.05
2023-04-18T18:06:57.075Z,10.65
2023-04-18T18:09:23.877Z,10.50
2023-04-18T18:11:50.722Z,11.02
2023-04-18T18:14:17.482Z,11.07
2023-04-18T18:16:44.237Z,9.85
2023-04-18T18:19:11.077Z,10.38
2023-04-18T18:21:37.833Z,10.30
2023-04-18T18:24:04.776Z,10.75
2023-04-18T18:26:31.548Z,11.93
2023-04-18T18:28:58.404Z,10.85
2023-04-18T18:31:25.604Z,10.65
2023-04-18T18:33:52.550Z,10.20
2023-04-18T18:36:19.312Z,10.60
2023-04-18T18:38:46.057Z,10.48
2023-04-18T18:41:12.850Z,10.98
2023-04-18T18:43:39.626Z,10.00
2023-04-18T18:46:06.378Z,9.73
2023-04-18T18:48:36.777Z,9.35
2023-04-18T18:51:03.659Z,9.95
2023-04-18T18:53:30.441Z,10.18
2023-04-18T18:55:57.172Z,10.85
2023-04-18T18:58:23.952Z,10.73
2023-04-18T19:00:51.500Z,11.00
2023-04-18T19:03:21.033Z,9.88
2023-04-18T19:05:48.009Z,10.57
2023-04-18T19:08:14.766Z,10.40
2023-04-18T19:10:41.940Z,10.43
2023-04-18T19:13:08.682Z,11.02
2023-04-18T19:15:35.532Z,12.02
2023-04-18T19:18:02.267Z,11.18
2023-04-18T19:20:29.333Z,12.52
2023-04-18T19:22:56.155Z,12.27
2023-04-18T19:25:22.963Z,11.88
2023-04-18T19:27:49.704Z,11.68
2023-04-18T19:30:16.506Z,10.77
2023-04-18T19:32:43.281Z,12.13
2023-04-18T19:35:13.003Z,12.65
2023-04-18T19:37:39.742Z,12.23
2023-04-18T19:40:07.463Z,12.50
2023-04-18T19:42:34.202Z,12.38
2023-04-18T19:45:00.979Z,11.40
2023-04-18T19:47:31.988Z,12.77
2023-04-18T19:49:58.787Z,12.50
2023-04-18T19:52:25.594Z,13.18
2023-04-18T19:54:53.430Z,14.15
2023-04-18T19:57:20.163Z,13.90
2023-04-18T19:59:46.938Z,13.43
2023-04-18T20:02:13.648Z,13.07
2023-04-18T20:04:41.786Z,12.70
2023-04-18T20:07:08.614Z,12.85
2023-04-18T20:09:35.339Z,13.10
2023-04-18T20:12:02.557Z,13.07
2023-04-18T20:14:29.699Z,13.23
2023-04-18T20:16:56.885Z,13.63
2023-04-18T20:19:26.735Z,13.38
2023-04-18T20:21:53.494Z,13.60
2023-04-18T20:24:21.093Z,11.52
2023-04-18T20:26:48.089Z,12.55
2023-04-18T20:29:15.026Z,13.32
2023-04-18T20:31:42.381Z,12.93
2023-04-18T20:34:09.845Z,13.32
2023-04-18T20:36:41.404Z,12.45
2023-04-18T20:39:09.087Z,13.05
2023-04-18T20:41:36.806Z,12.52
2023-04-18T20:44:09.884Z,12.43
2023-04-18T20:46:36.722Z,13.50
2023-04-18T20:49:03.509Z,12.65
2023-04-18T20:51:31.718Z,11.98
2023-04-18T20:53:58.466Z,12.73
2023-04-18T20:56:25.188Z,11.95
2023-04-18T20:58:51.983Z,12.57
2023-04-18T21:01:18.767Z,12.88
2023-04-18T21:03:45.809Z,12.48
2023-04-18T21:06:12.938Z,12.90
2023-04-18T21:08:39.741Z,12.23
2023-04-18T21:11:07.463Z,13.43
2023-04-18T21:13:34.924Z,12.15
2023-04-18T21:16:03.410Z,12.02
2023-04-18T21:18:30.256Z,11.80
2023-04-18T21:20:56.970Z,12.15
2023-04-18T21:23:24.350Z,12.45
2023-04-18T21:25:51.079Z,12.13
2023-04-18T21:28:20.262Z,11.40
2023-04-18T21:30:47.006Z,11.68
2023-04-18T21:33:15.356Z,12.63
2023-04-18T21:35:42.247Z,11.45
2023-04-18T21:38:09.071Z,10.20
2023-04-18T21:40:37.221Z,11.85
2023-04-18T21:43:03.961Z,11.15
2023-04-18T21:45:30.972Z,11.60
2023-04-18T21:47:57.774Z,11.75
2023-04-18T21:50:24.679Z,11.20
2023-04-18T21:52:51.378Z,11.90
2023-04-18T21:55:18.326Z,10.70
2023-04-18T21:57:45.037Z,11.10
2023-04-18T22:00:12.803Z,11.00
2023-04-18T22:02:39.642Z,12.05
2023-04-18T22:05:07.566Z,12.20
2023-04-18T22:07:38.524Z,11.63
2023-04-18T22:10:10.905Z,11.52
2023-04-18T22:12:37.682Z,11.80
2023-04-18T22:15:05.353Z,11.13
2023-04-18T22:17:32.190Z,11.85
2023-04-18T22:19:59.533Z,12.38
2023-04-18T22:22:26.637Z,12.15
2023-04-18T22:24:53.438Z,11.30
2023-04-18T22:27:20.213Z,10.85
2023-04-18T22:29:46.987Z,11.77
2023-04-18T22:32:13.714Z,11.40
2023-04-18T22:34:40.596Z,11.30
2023-04-18T22:37:07.380Z,10.98
2023-04-18T22:39:34.204Z,10.68
2023-04-18T22:42:01.006Z,11.40
2023-04-18T22:44:27.723Z,11.02
2023-04-18T22:46:54.597Z,11.93
2023-04-18T22:49:22.128Z,11.30
2023-04-18T22:51:49.484Z,11.63
2023-04-18T22:54:16.401Z,11.80
2023-04-18T22:56:43.341Z,11.15
2023-04-18T22:59:10.061Z,11.43
2023-04-18T23:01:36.906Z,11.55
2023-04-18T23:04:03.946Z,11.15
2023-04-18T23:06:31.456Z,12.15
2023-04-18T23:08:58.573Z,11.88
2023-04-18T23:11:26.162Z,11.85
2023-04-18T23:13:52.876Z,12.35
2023-04-18T23:16:19.677Z,12.57
2023-04-18T23:18:46.463Z,12.23
2023-04-18T23:21:13.267Z,12.00
2023-04-18T23:23:40.018Z,12.88
2023-04-18T23:26:16.299Z,12.13
2023-04-18T23:28:43.088Z,12.13
2023-04-18T23:31:10.094Z,11.45
2023-04-18T23:33:37.367Z,11.35
2023-04-18T23:36:04.232Z,11.75
2023-04-18T23:38:31.249Z,12.55
2023-04-18T23:40:58.094Z,13.32
2023-04-18T23:43:24.899Z,11.55
2023-04-18T23:45:51.615Z,12.15
2023-04-18T23:48:18.339Z,12.23
2023-04-18T23:50:52.018Z,11.35
2023-04-18T23:53:20.703Z,11.80
2023-04-18T23:55:50.582Z,12.48
2023-04-18T23:58:17.760Z,12.30
